sensor_id;sensor_type;location;lat;lon;timestamp;P1;durP1;ratioP1;P2;durP2;ratioP2
7817;SDS011;3954;52.624;9.212;2023-06-24T00:01:00;5.10;;;3.70;;
7817;SDS011;3954;52.624;9.212;2023-06-24T00:03:26;4.20;;;3.80;;
7817;SDS011;3954;52.624;9.212;2023-06-24T00:05:52;4.93;;;3.80;;
7817;SDS011;3954;52.624;9.212;2023-06-24T00:08:22;4.87;;;4.10;;
7817;SDS011;3954;52.624;9.212;2023-06-24T00:10:48;5.53;;;4.03;;
7817;SDS011;3954;52.624;9.212;2023-06-24T00:13:14;3.87;;;3.57;;
7817;SDS011;3954;52.624;9.212;2023-06-24T00:15:40;4.67;;;4.17;;
7817;SDS011;3954;52.624;9.212;2023-06-24T00:18:09;4.53;;;4.13;;
7817;SDS011;3954;52.624;9.212;2023-06-24T00:20:35;5.27;;;4.13;;
7817;SDS011;3954;52.624;9.212;2023-06-24T00:23:01;7.07;;;6.00;;
7817;SDS011;3954;52.624;9.212;2023-06-24T00:25:27;8.37;;;7.57;;
7817;SDS011;3954;52.624;9.212;2023-06-24T00:27:53;6.50;;;5.87;;
7817;SDS011;3954;52.624;9.212;2023-06-24T00:30:19;5.70;;;5.10;;
7817;SDS011;3954;52.624;9.212;2023-06-24T00:32:45;5.17;;;4.43;;
7817;SDS011;3954;52.624;9.212;2023-06-24T00:35:12;4.87;;;4.43;;
7817;SDS011;3954;52.624;9.212;2023-06-24T00:37:39;5.10;;;4.60;;
7817;SDS011;3954;52.624;9.212;2023-06-24T00:40:07;5.17;;;4.67;;
7817;SDS011;3954;52.624;9.212;2023-06-24T00:42:40;4.20;;;3.90;;
7817;SDS011;3954;52.624;9.212;2023-06-24T00:45:07;8.67;;;4.80;;
7817;SDS011;3954;52.624;9.212;2023-06-24T00:47:35;5.87;;;4.90;;
7817;SDS011;3954;52.624;9.212;2023-06-24T00:50:01;5.60;;;4.83;;
7817;SDS011;3954;52.624;9.212;2023-06-24T00:52:28;5.47;;;4.87;;
7817;SDS011;3954;52.624;9.212;2023-06-24T00:54:54;6.30;;;5.33;;
7817;SDS011;3954;52.624;9.212;2023-06-24T00:57:21;6.70;;;5.53;;
7817;SDS011;3954;52.624;9.212;2023-06-24T00:59:48;7.70;;;6.03;;
7817;SDS011;3954;52.624;9.212;2023-06-24T01:02:18;6.73;;;6.13;;
7817;SDS011;3954;52.624;9.212;2023-06-24T01:04:44;7.03;;;6.10;;
7817;SDS011;3954;52.624;9.212;2023-06-24T01:07:10;8.10;;;6.63;;
7817;SDS011;3954;52.624;9.212;2023-06-24T01:09:38;7.70;;;5.83;;
7817;SDS011;3954;52.624;9.212;2023-06-24T01:12:04;6.97;;;6.20;;
7817;SDS011;3954;52.624;9.212;2023-06-24T01:14:31;7.83;;;6.73;;
7817;SDS011;3954;52.624;9.212;2023-06-24T01:16:58;7.90;;;5.67;;
7817;SDS011;3954;52.624;9.212;2023-06-24T01:22:14;7.47;;;6.20;;
7817;SDS011;3954;52.624;9.212;2023-06-24T01:24:54;8.57;;;5.80;;
7817;SDS011;3954;52.624;9.212;2023-06-24T01:27:31;6.77;;;6.07;;
7817;SDS011;3954;52.624;9.212;2023-06-24T01:30:03;5.93;;;5.40;;
7817;SDS011;3954;52.624;9.212;2023-06-24T01:32:38;6.30;;;5.63;;
7817;SDS011;3954;52.624;9.212;2023-06-24T01:35:07;7.30;;;6.37;;
7817;SDS011;3954;52.624;9.212;2023-06-24T01:37:35;8.10;;;6.23;;
7817;SDS011;3954;52.624;9.212;2023-06-24T01:40:05;8.00;;;7.00;;
7817;SDS011;3954;52.624;9.212;2023-06-24T01:42:34;8.50;;;7.10;;
7817;SDS011;3954;52.624;9.212;2023-06-24T01:45:02;7.47;;;6.67;;
7817;SDS011;3954;52.624;9.212;2023-06-24T01:47:28;7.47;;;6.60;;
7817;SDS011;3954;52.624;9.212;2023-06-24T01:49:56;8.17;;;6.80;;
7817;SDS011;3954;52.624;9.212;2023-06-24T01:52:24;8.73;;;7.07;;
7817;SDS011;3954;52.624;9.212;2023-06-24T01:54:52;9.90;;;6.90;;
7817;SDS011;3954;52.624;9.212;2023-06-24T01:57:19;9.33;;;7.07;;
7817;SDS011;3954;52.624;9.212;2023-06-24T01:59:46;7.23;;;6.53;;
7817;SDS011;3954;52.624;9.212;2023-06-24T02:02:14;7.00;;;6.30;;
7817;SDS011;3954;52.624;9.212;2023-06-24T02:04:40;7.20;;;6.60;;
7817;SDS011;3954;52.624;9.212;2023-06-24T02:07:07;8.50;;;7.00;;
7817;SDS011;3954;52.624;9.212;2023-06-24T02:09:34;7.40;;;6.60;;
7817;SDS011;3954;52.624;9.212;2023-06-24T02:12:00;7.30;;;6.17;;
7817;SDS011;3954;52.624;9.212;2023-06-24T02:14:27;6.97;;;6.37;;
7817;SDS011;3954;52.624;9.212;2023-06-24T02:16:54;10.03;;;6.87;;
7817;SDS011;3954;52.624;9.212;2023-06-24T02:19:21;8.50;;;7.50;;
7817;SDS011;3954;52.624;9.212;2023-06-24T02:21:47;8.13;;;6.83;;
7817;SDS011;3954;52.624;9.212;2023-06-24T02:24:18;8.40;;;7.50;;
7817;SDS011;3954;52.624;9.212;2023-06-24T02:26:44;8.23;;;7.53;;
7817;SDS011;3954;52.624;9.212;2023-06-24T02:29:10;7.43;;;6.73;;
7817;SDS011;3954;52.624;9.212;2023-06-24T02:31:36;7.67;;;6.97;;
7817;SDS011;3954;52.624;9.212;2023-06-24T02:34:02;7.83;;;7.07;;
7817;SDS011;3954;52.624;9.212;2023-06-24T02:36:28;8.37;;;6.60;;
7817;SDS011;3954;52.624;9.212;2023-06-24T02:38:54;7.93;;;7.00;;
7817;SDS011;3954;52.624;9.212;2023-06-24T02:41:22;8.00;;;7.30;;
7817;SDS011;3954;52.624;9.212;2023-06-24T02:43:48;10.83;;;6.83;;
7817;SDS011;3954;52.624;9.212;2023-06-24T02:46:14;7.17;;;6.47;;
7817;SDS011;3954;52.624;9.212;2023-06-24T02:48:41;8.83;;;7.93;;
7817;SDS011;3954;52.624;9.212;2023-06-24T02:51:07;7.87;;;7.17;;
7817;SDS011;3954;52.624;9.212;2023-06-24T02:53:35;6.60;;;6.00;;
7817;SDS011;3954;52.624;9.212;2023-06-24T02:56:01;8.27;;;6.30;;
7817;SDS011;3954;52.624;9.212;2023-06-24T02:58:30;8.73;;;7.50;;
7817;SDS011;3954;52.624;9.212;2023-06-24T03:00:57;8.30;;;7.40;;
7817;SDS011;3954;52.624;9.212;2023-06-24T03:03:24;8.00;;;7.20;;
7817;SDS011;3954;52.624;9.212;2023-06-24T03:05:51;7.53;;;6.83;;
7817;SDS011;3954;52.624;9.212;2023-06-24T03:08:18;8.13;;;6.97;;
7817;SDS011;3954;52.624;9.212;2023-06-24T03:10:44;9.50;;;8.10;;
7817;SDS011;3954;52.624;9.212;2023-06-24T03:13:10;8.43;;;7.53;;
7817;SDS011;3954;52.624;9.212;2023-06-24T03:15:38;8.87;;;7.97;;
7817;SDS011;3954;52.624;9.212;2023-06-24T03:18:04;8.97;;;8.07;;
7817;SDS011;3954;52.624;9.212;2023-06-24T03:20:30;8.27;;;7.40;;
7817;SDS011;3954;52.624;9.212;2023-06-24T03:23:03;8.47;;;7.70;;
7817;SDS011;3954;52.624;9.212;2023-06-24T03:25:29;8.70;;;7.87;;
7817;SDS011;3954;52.624;9.212;2023-06-24T03:27:55;9.17;;;8.37;;
7817;SDS011;3954;52.624;9.212;2023-06-24T03:30:21;8.00;;;7.23;;
7817;SDS011;3954;52.624;9.212;2023-06-24T03:32:48;8.90;;;7.90;;
7817;SDS011;3954;52.624;9.212;2023-06-24T03:35:14;8.73;;;7.93;;
7817;SDS011;3954;52.624;9.212;2023-06-24T03:37:41;9.43;;;7.70;;
7817;SDS011;3954;52.624;9.212;2023-06-24T03:40:07;8.47;;;7.77;;
7817;SDS011;3954;52.624;9.212;2023-06-24T03:42:33;12.37;;;9.37;;
7817;SDS011;3954;52.624;9.212;2023-06-24T03:44:59;9.37;;;8.37;;
7817;SDS011;3954;52.624;9.212;2023-06-24T03:47:25;10.73;;;9.63;;
7817;SDS011;3954;52.624;9.212;2023-06-24T03:49:53;9.10;;;8.20;;
7817;SDS011;3954;52.624;9.212;2023-06-24T03:52:19;10.20;;;8.77;;
7817;SDS011;3954;52.624;9.212;2023-06-24T03:54:45;9.83;;;8.93;;
7817;SDS011;3954;52.624;9.212;2023-06-24T03:57:11;9.43;;;8.53;;
7817;SDS011;3954;52.624;9.212;2023-06-24T03:59:37;10.70;;;9.00;;
7817;SDS011;3954;52.624;9.212;2023-06-24T04:02:04;9.57;;;8.50;;
7817;SDS011;3954;52.624;9.212;2023-06-24T04:04:33;9.37;;;8.57;;
7817;SDS011;3954;52.624;9.212;2023-06-24T04:07:00;11.07;;;9.70;;
7817;SDS011;3954;52.624;9.212;2023-06-24T04:09:26;10.23;;;8.77;;
7817;SDS011;3954;52.624;9.212;2023-06-24T04:11:52;9.37;;;8.57;;
7817;SDS011;3954;52.624;9.212;2023-06-24T04:14:18;10.83;;;9.73;;
7817;SDS011;3954;52.624;9.212;2023-06-24T04:16:44;11.67;;;10.57;;
7817;SDS011;3954;52.624;9.212;2023-06-24T04:19:10;13.43;;;10.80;;
7817;SDS011;3954;52.624;9.212;2023-06-24T04:21:36;10.70;;;9.63;;
7817;SDS011;3954;52.624;9.212;2023-06-24T04:24:04;10.53;;;9.53;;
7817;SDS011;3954;52.624;9.212;2023-06-24T04:26:30;9.70;;;8.80;;
7817;SDS011;3954;52.624;9.212;2023-06-24T04:28:56;11.93;;;10.73;;
7817;SDS011;3954;52.624;9.212;2023-06-24T04:31:22;11.47;;;10.37;;
7817;SDS011;3954;52.624;9.212;2023-06-24T04:33:48;14.40;;;11.60;;
7817;SDS011;3954;52.624;9.212;2023-06-24T04:36:14;12.63;;;11.30;;
7817;SDS011;3954;52.624;9.212;2023-06-24T04:38:41;14.13;;;11.20;;
7817;SDS011;3954;52.624;9.212;2023-06-24T04:41:08;12.30;;;11.10;;
7817;SDS011;3954;52.624;9.212;2023-06-24T04:43:34;14.97;;;10.53;;
7817;SDS011;3954;52.624;9.212;2023-06-24T04:46:00;16.80;;;10.87;;
7817;SDS011;3954;52.624;9.212;2023-06-24T04:48:26;12.93;;;10.40;;
7817;SDS011;3954;52.624;9.212;2023-06-24T04:50:52;12.50;;;10.20;;
7817;SDS011;3954;52.624;9.212;2023-06-24T04:53:19;12.40;;;11.10;;
7817;SDS011;3954;52.624;9.212;2023-06-24T04:55:45;12.97;;;10.67;;
7817;SDS011;3954;52.624;9.212;2023-06-24T04:58:13;10.83;;;9.73;;
7817;SDS011;3954;52.624;9.212;2023-06-24T05:00:39;14.27;;;10.97;;
7817;SDS011;3954;52.624;9.212;2023-06-24T05:03:05;14.10;;;11.30;;
7817;SDS011;3954;52.624;9.212;2023-06-24T05:05:31;11.70;;;10.50;;
7817;SDS011;3954;52.624;9.212;2023-06-24T05:07:57;11.07;;;9.37;;
7817;SDS011;3954;52.624;9.212;2023-06-24T05:10:23;11.57;;;10.37;;
7817;SDS011;3954;52.624;9.212;2023-06-24T05:12:49;11.13;;;10.03;;
7817;SDS011;3954;52.624;9.212;2023-06-24T05:15:16;14.77;;;11.07;;
7817;SDS011;3954;52.624;9.212;2023-06-24T05:17:42;13.53;;;11.70;;
7817;SDS011;3954;52.624;9.212;2023-06-24T05:20:08;13.00;;;10.90;;
7817;SDS011;3954;52.624;9.212;2023-06-24T05:22:34;13.13;;;11.57;;
7817;SDS011;3954;52.624;9.212;2023-06-24T05:25:01;13.83;;;11.73;;
7817;SDS011;3954;52.624;9.212;2023-06-24T05:27:27;12.23;;;11.07;;
7817;SDS011;3954;52.624;9.212;2023-06-24T05:29:53;15.17;;;12.27;;
7817;SDS011;3954;52.624;9.212;2023-06-24T05:32:20;12.50;;;10.17;;
7817;SDS011;3954;52.624;9.212;2023-06-24T05:34:46;11.07;;;9.97;;
7817;SDS011;3954;52.624;9.212;2023-06-24T05:37:12;11.43;;;10.43;;
7817;SDS011;3954;52.624;9.212;2023-06-24T05:39:39;14.33;;;10.13;;
7817;SDS011;3954;52.624;9.212;2023-06-24T05:42:05;11.93;;;10.77;;
7817;SDS011;3954;52.624;9.212;2023-06-24T05:44:31;12.03;;;10.10;;
7817;SDS011;3954;52.624;9.212;2023-06-24T05:46:57;12.83;;;11.50;;
7817;SDS011;3954;52.624;9.212;2023-06-24T05:49:27;10.30;;;9.40;;
7817;SDS011;3954;52.624;9.212;2023-06-24T05:51:53;10.90;;;9.90;;
7817;SDS011;3954;52.624;9.212;2023-06-24T05:54:19;11.30;;;10.20;;
7817;SDS011;3954;52.624;9.212;2023-06-24T05:56:45;12.13;;;10.13;;
7817;SDS011;3954;52.624;9.212;2023-06-24T05:59:11;10.83;;;9.57;;
7817;SDS011;3954;52.624;9.212;2023-06-24T06:01:37;10.67;;;9.67;;
7817;SDS011;3954;52.624;9.212;2023-06-24T06:04:03;10.90;;;9.83;;
7817;SDS011;3954;52.624;9.212;2023-06-24T06:06:30;13.20;;;10.40;;
7817;SDS011;3954;52.624;9.212;2023-06-24T06:08:56;10.27;;;9.23;;
7817;SDS011;3954;52.624;9.212;2023-06-24T06:11:22;12.73;;;10.43;;
7817;SDS011;3954;52.624;9.212;2023-06-24T06:13:48;11.10;;;9.30;;
7817;SDS011;3954;52.624;9.212;2023-06-24T06:16:14;11.50;;;9.53;;
7817;SDS011;3954;52.624;9.212;2023-06-24T06:18:40;12.50;;;9.03;;
7817;SDS011;3954;52.624;9.212;2023-06-24T06:21:06;11.63;;;8.70;;
7817;SDS011;3954;52.624;9.212;2023-06-24T06:23:34;11.13;;;9.43;;
7817;SDS011;3954;52.624;9.212;2023-06-24T06:26:00;10.37;;;9.27;;
7817;SDS011;3954;52.624;9.212;2023-06-24T06:28:26;11.20;;;8.90;;
7817;SDS011;3954;52.624;9.212;2023-06-24T06:30:52;10.13;;;7.90;;
7817;SDS011;3954;52.624;9.212;2023-06-24T06:33:18;8.70;;;7.57;;
7817;SDS011;3954;52.624;9.212;2023-06-24T06:35:44;8.83;;;7.93;;
7817;SDS011;3954;52.624;9.212;2023-06-24T06:38:10;8.07;;;7.10;;
7817;SDS011;3954;52.624;9.212;2023-06-24T06:40:37;10.77;;;7.60;;
7817;SDS011;3954;52.624;9.212;2023-06-24T06:43:03;10.03;;;7.50;;
7817;SDS011;3954;52.624;9.212;2023-06-24T06:45:29;7.37;;;6.67;;
7817;SDS011;3954;52.624;9.212;2023-06-24T06:47:55;9.77;;;7.83;;
7817;SDS011;3954;52.624;9.212;2023-06-24T06:50:21;7.27;;;6.53;;
7817;SDS011;3954;52.624;9.212;2023-06-24T06:52:47;8.10;;;6.27;;
7817;SDS011;3954;52.624;9.212;2023-06-24T06:55:13;8.17;;;6.10;;
7817;SDS011;3954;52.624;9.212;2023-06-24T06:57:40;6.07;;;5.47;;
7817;SDS011;3954;52.624;9.212;2023-06-24T07:00:07;9.20;;;5.10;;
7817;SDS011;3954;52.624;9.212;2023-06-24T07:02:33;9.30;;;6.43;;
7817;SDS011;3954;52.624;9.212;2023-06-24T07:04:59;6.13;;;5.37;;
7817;SDS011;3954;52.624;9.212;2023-06-24T07:07:26;9.27;;;5.77;;
7817;SDS011;3954;52.624;9.212;2023-06-24T07:09:51;5.60;;;5.03;;
7817;SDS011;3954;52.624;9.212;2023-06-24T07:12:18;5.73;;;4.60;;
7817;SDS011;3954;52.624;9.212;2023-06-24T07:14:47;5.40;;;4.90;;
7817;SDS011;3954;52.624;9.212;2023-06-24T07:17:13;6.17;;;4.97;;
7817;SDS011;3954;52.624;9.212;2023-06-24T07:19:39;6.83;;;5.33;;
7817;SDS011;3954;52.624;9.212;2023-06-24T07:22:05;6.00;;;4.67;;
7817;SDS011;3954;52.624;9.212;2023-06-24T07:24:31;5.93;;;5.37;;
7817;SDS011;3954;52.624;9.212;2023-06-24T07:26:57;10.30;;;5.30;;
7817;SDS011;3954;52.624;9.212;2023-06-24T07:29:23;8.27;;;5.60;;
7817;SDS011;3954;52.624;9.212;2023-06-24T07:31:50;6.37;;;5.43;;
7817;SDS011;3954;52.624;9.212;2023-06-24T07:34:16;6.87;;;5.27;;
7817;SDS011;3954;52.624;9.212;2023-06-24T07:36:42;8.73;;;5.13;;
7817;SDS011;3954;52.624;9.212;2023-06-24T07:39:09;6.77;;;5.60;;
7817;SDS011;3954;52.624;9.212;2023-06-24T07:41:34;6.00;;;4.57;;
7817;SDS011;3954;52.624;9.212;2023-06-24T07:44:00;6.63;;;4.77;;
7817;SDS011;3954;52.624;9.212;2023-06-24T07:46:27;3.93;;;3.20;;
7817;SDS011;3954;52.624;9.212;2023-06-24T07:48:54;4.83;;;4.00;;
7817;SDS011;3954;52.624;9.212;2023-06-24T07:51:21;4.07;;;3.67;;
7817;SDS011;3954;52.624;9.212;2023-06-24T07:53:47;5.60;;;4.43;;
7817;SDS011;3954;52.624;9.212;2023-06-24T07:56:13;6.80;;;4.40;;
7817;SDS011;3954;52.624;9.212;2023-06-24T07:58:39;8.40;;;4.30;;
7817;SDS011;3954;52.624;9.212;2023-06-24T08:01:05;6.03;;;4.70;;
7817;SDS011;3954;52.624;9.212;2023-06-24T08:03:31;4.13;;;3.50;;
7817;SDS011;3954;52.624;9.212;2023-06-24T08:05:58;6.60;;;4.53;;
7817;SDS011;3954;52.624;9.212;2023-06-24T08:08:24;4.67;;;3.80;;
7817;SDS011;3954;52.624;9.212;2023-06-24T08:10:53;9.43;;;5.13;;
7817;SDS011;3954;52.624;9.212;2023-06-24T08:13:19;4.30;;;3.90;;
7817;SDS011;3954;52.624;9.212;2023-06-24T08:15:45;7.60;;;4.70;;
7817;SDS011;3954;52.624;9.212;2023-06-24T08:18:11;6.63;;;4.80;;
7817;SDS011;3954;52.624;9.212;2023-06-24T08:20:37;6.37;;;4.97;;
7817;SDS011;3954;52.624;9.212;2023-06-24T08:23:04;5.57;;;4.30;;
7817;SDS011;3954;52.624;9.212;2023-06-24T08:25:30;6.17;;;4.67;;
7817;SDS011;3954;52.624;9.212;2023-06-24T08:27:57;4.10;;;3.70;;
7817;SDS011;3954;52.624;9.212;2023-06-24T08:30:23;5.50;;;3.90;;
7817;SDS011;3954;52.624;9.212;2023-06-24T08:32:49;5.90;;;4.10;;
7817;SDS011;3954;52.624;9.212;2023-06-24T08:35:15;9.00;;;4.27;;
7817;SDS011;3954;52.624;9.212;2023-06-24T08:37:41;6.50;;;4.00;;
7817;SDS011;3954;52.624;9.212;2023-06-24T08:40:09;4.30;;;3.70;;
7817;SDS011;3954;52.624;9.212;2023-06-24T08:42:35;6.27;;;3.47;;
7817;SDS011;3954;52.624;9.212;2023-06-24T08:45:01;7.57;;;4.80;;
7817;SDS011;3954;52.624;9.212;2023-06-24T08:47:27;5.23;;;4.53;;
7817;SDS011;3954;52.624;9.212;2023-06-24T08:49:55;4.17;;;3.80;;
7817;SDS011;3954;52.624;9.212;2023-06-24T08:52:26;4.00;;;3.60;;
7817;SDS011;3954;52.624;9.212;2023-06-24T08:54:55;6.23;;;5.30;;
7817;SDS011;3954;52.624;9.212;2023-06-24T08:57:25;5.00;;;4.40;;
7817;SDS011;3954;52.624;9.212;2023-06-24T08:59:51;5.17;;;3.70;;
7817;SDS011;3954;52.624;9.212;2023-06-24T09:02:18;4.23;;;3.83;;
7817;SDS011;3954;52.624;9.212;2023-06-24T09:04:44;3.70;;;3.40;;
7817;SDS011;3954;52.624;9.212;2023-06-24T09:07:10;6.40;;;4.30;;
7817;SDS011;3954;52.624;9.212;2023-06-24T09:09:41;3.83;;;3.43;;
7817;SDS011;3954;52.624;9.212;2023-06-24T09:12:10;4.47;;;4.07;;
7817;SDS011;3954;52.624;9.212;2023-06-24T09:14:38;4.97;;;3.63;;
7817;SDS011;3954;52.624;9.212;2023-06-24T09:17:05;4.87;;;4.37;;
7817;SDS011;3954;52.624;9.212;2023-06-24T09:19:31;10.97;;;4.77;;
7817;SDS011;3954;52.624;9.212;2023-06-24T09:22:01;4.30;;;3.90;;
7817;SDS011;3954;52.624;9.212;2023-06-24T09:24:27;6.67;;;3.67;;
7817;SDS011;3954;52.624;9.212;2023-06-24T09:26:55;4.73;;;3.97;;
7817;SDS011;3954;52.624;9.212;2023-06-24T09:29:25;4.13;;;3.80;;
7817;SDS011;3954;52.624;9.212;2023-06-24T09:31:54;4.93;;;3.80;;
7817;SDS011;3954;52.624;9.212;2023-06-24T09:34:25;5.57;;;4.33;;
7817;SDS011;3954;52.624;9.212;2023-06-24T09:36:51;6.67;;;4.27;;
7817;SDS011;3954;52.624;9.212;2023-06-24T09:39:18;3.93;;;3.43;;
7817;SDS011;3954;52.624;9.212;2023-06-24T09:41:45;4.17;;;3.57;;
7817;SDS011;3954;52.624;9.212;2023-06-24T09:44:15;4.50;;;3.43;;
7817;SDS011;3954;52.624;9.212;2023-06-24T09:46:41;4.27;;;3.77;;
7817;SDS011;3954;52.624;9.212;2023-06-24T09:49:10;4.70;;;3.60;;
7817;SDS011;3954;52.624;9.212;2023-06-24T09:51:36;3.97;;;3.57;;
7817;SDS011;3954;52.624;9.212;2023-06-24T09:54:04;4.30;;;3.90;;
7817;SDS011;3954;52.624;9.212;2023-06-24T09:56:31;3.50;;;3.20;;
7817;SDS011;3954;52.624;9.212;2023-06-24T09:59:01;4.47;;;4.07;;
7817;SDS011;3954;52.624;9.212;2023-06-24T10:01:28;3.70;;;3.40;;
7817;SDS011;3954;52.624;9.212;2023-06-24T10:03:54;4.10;;;3.70;;
7817;SDS011;3954;52.624;9.212;2023-06-24T10:06:22;3.43;;;3.13;;
7817;SDS011;3954;52.624;9.212;2023-06-24T10:08:49;4.03;;;3.63;;
7817;SDS011;3954;52.624;9.212;2023-06-24T10:11:15;4.03;;;3.00;;
7817;SDS011;3954;52.624;9.212;2023-06-24T10:13:41;4.50;;;3.57;;
7817;SDS011;3954;52.624;9.212;2023-06-24T10:16:07;4.13;;;3.43;;
7817;SDS011;3954;52.624;9.212;2023-06-24T10:18:34;3.73;;;3.30;;
7817;SDS011;3954;52.624;9.212;2023-06-24T10:21:00;3.70;;;3.37;;
7817;SDS011;3954;52.624;9.212;2023-06-24T10:23:30;3.77;;;3.23;;
7817;SDS011;3954;52.624;9.212;2023-06-24T10:25:56;3.50;;;3.20;;
7817;SDS011;3954;52.624;9.212;2023-06-24T10:28:23;4.03;;;3.73;;
7817;SDS011;3954;52.624;9.212;2023-06-24T10:30:53;3.67;;;3.37;;
7817;SDS011;3954;52.624;9.212;2023-06-24T10:33:20;3.70;;;3.00;;
7817;SDS011;3954;52.624;9.212;2023-06-24T10:35:46;3.77;;;2.80;;
7817;SDS011;3954;52.624;9.212;2023-06-24T10:38:12;3.93;;;3.17;;
7817;SDS011;3954;52.624;9.212;2023-06-24T10:40:39;4.60;;;3.27;;
7817;SDS011;3954;52.624;9.212;2023-06-24T10:45:50;3.47;;;2.80;;
7817;SDS011;3954;52.624;9.212;2023-06-24T10:48:17;3.07;;;2.73;;
7817;SDS011;3954;52.624;9.212;2023-06-24T10:50:46;3.03;;;2.73;;
7817;SDS011;3954;52.624;9.212;2023-06-24T10:53:13;3.13;;;2.53;;
7817;SDS011;3954;52.624;9.212;2023-06-24T10:55:40;3.60;;;2.87;;
7817;SDS011;3954;52.624;9.212;2023-06-24T10:58:07;5.03;;;3.43;;
7817;SDS011;3954;52.624;9.212;2023-06-24T11:00:34;3.50;;;3.20;;
7817;SDS011;3954;52.624;9.212;2023-06-24T11:03:07;3.33;;;3.03;;
7817;SDS011;3954;52.624;9.212;2023-06-24T11:05:33;6.67;;;6.07;;
7817;SDS011;3954;52.624;9.212;2023-06-24T11:07:59;3.40;;;3.10;;
7817;SDS011;3954;52.624;9.212;2023-06-24T11:10:25;3.33;;;3.03;;
7817;SDS011;3954;52.624;9.212;2023-06-24T11:12:52;3.43;;;3.13;;
7817;SDS011;3954;52.624;9.212;2023-06-24T11:15:18;3.93;;;3.50;;
7817;SDS011;3954;52.624;9.212;2023-06-24T11:17:44;5.77;;;4.00;;
7817;SDS011;3954;52.624;9.212;2023-06-24T11:20:11;6.13;;;3.83;;
7817;SDS011;3954;52.624;9.212;2023-06-24T11:22:37;3.63;;;3.00;;
7817;SDS011;3954;52.624;9.212;2023-06-24T11:25:05;4.10;;;3.27;;
7817;SDS011;3954;52.624;9.212;2023-06-24T11:27:31;4.67;;;3.87;;
7817;SDS011;3954;52.624;9.212;2023-06-24T11:29:59;4.00;;;3.60;;
7817;SDS011;3954;52.624;9.212;2023-06-24T11:32:34;4.00;;;3.60;;
7817;SDS011;3954;52.624;9.212;2023-06-24T11:35:00;4.13;;;3.60;;
7817;SDS011;3954;52.624;9.212;2023-06-24T11:37:30;4.87;;;3.20;;
7817;SDS011;3954;52.624;9.212;2023-06-24T11:40:03;3.60;;;3.30;;
7817;SDS011;3954;52.624;9.212;2023-06-24T11:42:29;5.57;;;4.30;;
7817;SDS011;3954;52.624;9.212;2023-06-24T11:45:00;6.33;;;3.90;;
7817;SDS011;3954;52.624;9.212;2023-06-24T11:47:26;5.10;;;3.70;;
7817;SDS011;3954;52.624;9.212;2023-06-24T11:49:54;4.80;;;3.60;;
7817;SDS011;3954;52.624;9.212;2023-06-24T11:52:27;5.87;;;4.27;;
7817;SDS011;3954;52.624;9.212;2023-06-24T11:54:53;5.90;;;3.53;;
7817;SDS011;3954;52.624;9.212;2023-06-24T11:57:19;5.63;;;4.13;;
7817;SDS011;3954;52.624;9.212;2023-06-24T11:59:45;6.80;;;3.77;;
7817;SDS011;3954;52.624;9.212;2023-06-24T12:02:19;5.20;;;4.43;;
7817;SDS011;3954;52.624;9.212;2023-06-24T12:04:45;4.23;;;3.60;;
7817;SDS011;3954;52.624;9.212;2023-06-24T12:07:11;4.77;;;3.30;;
7817;SDS011;3954;52.624;9.212;2023-06-24T12:09:37;5.20;;;4.00;;
7817;SDS011;3954;52.624;9.212;2023-06-24T12:12:04;5.30;;;4.17;;
7817;SDS011;3954;52.624;9.212;2023-06-24T12:14:31;5.00;;;4.23;;
7817;SDS011;3954;52.624;9.212;2023-06-24T12:16:57;5.77;;;3.53;;
7817;SDS011;3954;52.624;9.212;2023-06-24T12:19:27;4.07;;;3.67;;
7817;SDS011;3954;52.624;9.212;2023-06-24T12:21:53;4.70;;;3.43;;
7817;SDS011;3954;52.624;9.212;2023-06-24T12:24:21;4.57;;;3.33;;
7817;SDS011;3954;52.624;9.212;2023-06-24T12:26:47;4.57;;;3.67;;
7817;SDS011;3954;52.624;9.212;2023-06-24T12:29:14;5.23;;;4.27;;
7817;SDS011;3954;52.624;9.212;2023-06-24T12:31:42;4.07;;;3.50;;
7817;SDS011;3954;52.624;9.212;2023-06-24T12:34:08;5.93;;;3.27;;
7817;SDS011;3954;52.624;9.212;2023-06-24T12:36:36;3.80;;;3.50;;
7817;SDS011;3954;52.624;9.212;2023-06-24T12:39:02;3.90;;;3.40;;
7817;SDS011;3954;52.624;9.212;2023-06-24T12:41:28;5.50;;;3.40;;
7817;SDS011;3954;52.624;9.212;2023-06-24T12:43:54;5.50;;;4.00;;
7817;SDS011;3954;52.624;9.212;2023-06-24T12:46:20;5.53;;;3.90;;
7817;SDS011;3954;52.624;9.212;2023-06-24T12:48:46;4.57;;;3.40;;
7817;SDS011;3954;52.624;9.212;2023-06-24T12:51:13;4.33;;;3.57;;
7817;SDS011;3954;52.624;9.212;2023-06-24T12:53:40;3.80;;;3.50;;
7817;SDS011;3954;52.624;9.212;2023-06-24T12:56:06;8.60;;;6.53;;
7817;SDS011;3954;52.624;9.212;2023-06-24T12:58:33;3.83;;;3.43;;
7817;SDS011;3954;52.624;9.212;2023-06-24T13:00:59;3.60;;;3.30;;
7817;SDS011;3954;52.624;9.212;2023-06-24T13:03:25;4.60;;;3.83;;
7817;SDS011;3954;52.624;9.212;2023-06-24T13:05:51;3.13;;;2.90;;
7817;SDS011;3954;52.624;9.212;2023-06-24T13:08:18;3.20;;;2.90;;
7817;SDS011;3954;52.624;9.212;2023-06-24T13:10:45;7.93;;;3.53;;
7817;SDS011;3954;52.624;9.212;2023-06-24T13:13:12;6.87;;;3.50;;
7817;SDS011;3954;52.624;9.212;2023-06-24T13:15:38;3.20;;;2.90;;
7817;SDS011;3954;52.624;9.212;2023-06-24T13:18:04;6.33;;;2.87;;
7817;SDS011;3954;52.624;9.212;2023-06-24T13:20:30;4.00;;;3.00;;
7817;SDS011;3954;52.624;9.212;2023-06-24T13:22:56;4.60;;;3.67;;
7817;SDS011;3954;52.624;9.212;2023-06-24T13:25:22;5.57;;;3.63;;
7817;SDS011;3954;52.624;9.212;2023-06-24T13:27:50;4.07;;;3.20;;
7817;SDS011;3954;52.624;9.212;2023-06-24T13:30:16;3.70;;;3.20;;
7817;SDS011;3954;52.624;9.212;2023-06-24T13:32:45;4.90;;;3.00;;
7817;SDS011;3954;52.624;9.212;2023-06-24T13:35:11;3.67;;;3.33;;
7817;SDS011;3954;52.624;9.212;2023-06-24T13:37:37;3.33;;;2.80;;
7817;SDS011;3954;52.624;9.212;2023-06-24T13:40:04;3.80;;;3.50;;
7817;SDS011;3954;52.624;9.212;2023-06-24T13:42:30;5.43;;;3.43;;
7817;SDS011;3954;52.624;9.212;2023-06-24T13:44:57;3.80;;;3.40;;
7817;SDS011;3954;52.624;9.212;2023-06-24T13:47:23;6.37;;;3.57;;
7817;SDS011;3954;52.624;9.212;2023-06-24T13:49:49;3.23;;;2.93;;
7817;SDS011;3954;52.624;9.212;2023-06-24T13:52:15;3.63;;;2.77;;
7817;SDS011;3954;52.624;9.212;2023-06-24T13:54:41;3.57;;;2.60;;
7817;SDS011;3954;52.624;9.212;2023-06-24T13:57:08;4.63;;;3.03;;
7817;SDS011;3954;52.624;9.212;2023-06-24T13:59:34;13.10;;;3.10;;
7817;SDS011;3954;52.624;9.212;2023-06-24T14:02:01;3.60;;;2.80;;
7817;SDS011;3954;52.624;9.212;2023-06-24T14:04:27;3.63;;;3.20;;
7817;SDS011;3954;52.624;9.212;2023-06-24T14:06:53;2.90;;;2.70;;
7817;SDS011;3954;52.624;9.212;2023-06-24T14:09:19;5.03;;;2.73;;
7817;SDS011;3954;52.624;9.212;2023-06-24T14:11:45;3.40;;;3.10;;
7817;SDS011;3954;52.624;9.212;2023-06-24T14:14:11;4.27;;;2.80;;
7817;SDS011;3954;52.624;9.212;2023-06-24T14:16:37;2.90;;;2.70;;
7817;SDS011;3954;52.624;9.212;2023-06-24T14:19:04;4.30;;;3.33;;
7817;SDS011;3954;52.624;9.212;2023-06-24T14:21:30;3.17;;;2.97;;
7817;SDS011;3954;52.624;9.212;2023-06-24T14:23:56;6.07;;;2.93;;
7817;SDS011;3954;52.624;9.212;2023-06-24T14:26:23;3.40;;;3.10;;
7817;SDS011;3954;52.624;9.212;2023-06-24T14:28:49;4.70;;;3.20;;
7817;SDS011;3954;52.624;9.212;2023-06-24T14:31:14;3.80;;;3.40;;
7817;SDS011;3954;52.624;9.212;2023-06-24T14:33:40;4.13;;;3.23;;
7817;SDS011;3954;52.624;9.212;2023-06-24T14:36:08;3.47;;;3.17;;
7817;SDS011;3954;52.624;9.212;2023-06-24T14:38:34;3.87;;;2.77;;
7817;SDS011;3954;52.624;9.212;2023-06-24T14:41:00;3.30;;;3.10;;
7817;SDS011;3954;52.624;9.212;2023-06-24T14:43:26;4.87;;;3.43;;
7817;SDS011;3954;52.624;9.212;2023-06-24T14:45:52;3.87;;;3.00;;
7817;SDS011;3954;52.624;9.212;2023-06-24T14:48:18;5.10;;;3.40;;
7817;SDS011;3954;52.624;9.212;2023-06-24T14:50:44;4.30;;;3.33;;
7817;SDS011;3954;52.624;9.212;2023-06-24T14:53:11;4.27;;;3.33;;
7817;SDS011;3954;52.624;9.212;2023-06-24T14:55:40;3.77;;;3.30;;
7817;SDS011;3954;52.624;9.212;2023-06-24T14:58:06;3.70;;;3.07;;
7817;SDS011;3954;52.624;9.212;2023-06-24T15:00:32;4.03;;;3.27;;
7817;SDS011;3954;52.624;9.212;2023-06-24T15:02:58;3.50;;;3.20;;
7817;SDS011;3954;52.624;9.212;2023-06-24T15:05:24;3.50;;;3.20;;
7817;SDS011;3954;52.624;9.212;2023-06-24T15:07:50;6.83;;;6.23;;
7817;SDS011;3954;52.624;9.212;2023-06-24T15:10:17;3.57;;;3.27;;
7817;SDS011;3954;52.624;9.212;2023-06-24T15:12:43;3.60;;;3.30;;
7817;SDS011;3954;52.624;9.212;2023-06-24T15:15:10;3.50;;;3.20;;